createdAt,value
2022-11-21T00:00:16.789Z,54
2022-11-21T00:05:16.748Z,53
2022-11-21T00:10:16.761Z,55
2022-11-21T00:15:16.787Z,59
2022-11-21T00:20:16.892Z,55
2022-11-21T00:25:16.832Z,58
2022-11-21T00:30:16.873Z,59
2022-11-21T00:35:16.891Z,59
2022-11-21T00:40:16.920Z,60
2022-11-21T00:45:22.709Z,65
2022-11-21T00:50:16.885Z,65
2022-11-21T00:55:16.985Z,65
2022-11-21T01:00:17.011Z,65
2022-11-21T01:05:16.985Z,67
2022-11-21T01:10:16.974Z,67
2022-11-21T01:15:17.084Z,67
2022-11-21T01:20:16.944Z,67
2022-11-21T01:25:16.926Z,66
2022-11-21T01:30:17.031Z,65
2022-11-21T01:35:16.922Z,67
2022-11-21T01:40:17.025Z,68
2022-11-21T01:45:16.970Z,68
2022-11-21T01:50:17.064Z,66
2022-11-21T01:55:16.960Z,66
2022-11-21T02:00:17.038Z,65
2022-11-21T02:05:17.181Z,65
2022-11-21T02:10:17.081Z,65
2022-11-21T02:15:17.130Z,66
2022-11-21T02:20:17.212Z,66
2022-11-21T02:25:17.052Z,67
2022-11-21T02:30:17.156Z,67
2022-11-21T02:35:17.076Z,66
2022-11-21T02:40:17.256Z,65
2022-11-21T02:45:17.074Z,65
2022-11-21T02:50:17.198Z,65
2022-11-21T02:55:17.230Z,68
2022-11-21T03:00:17.378Z,67
2022-11-21T03:05:17.147Z,66
2022-11-21T03:10:17.199Z,62
2022-11-21T03:15:17.283Z,65
2022-11-21T03:20:17.148Z,65
2022-11-21T03:25:17.358Z,66
2022-11-21T03:30:17.264Z,67
2022-11-21T03:35:17.260Z,67
2022-11-21T03:40:17.273Z,67
2022-11-21T03:45:17.263Z,67
2022-11-21T03:50:17.402Z,66
2022-11-21T03:55:17.234Z,65
2022-11-21T04:00:17.322Z,66
2022-11-21T04:05:17.549Z,66
2022-11-21T04:10:17.411Z,65
2022-11-21T04:15:17.334Z,64
2022-11-21T04:20:17.345Z,63
2022-11-21T04:25:17.419Z,64
2022-11-21T04:30:17.412Z,63
2022-11-21T04:35:17.464Z,63
2022-11-21T04:40:15.403Z,62
2022-11-21T04:45:15.394Z,61
2022-11-21T04:50:15.398Z,60
2022-11-21T04:55:15.529Z,60
2022-11-21T05:00:20.858Z,58
2022-11-21T05:05:16.436Z,54
2022-11-21T05:10:16.553Z,57
2022-11-21T05:15:20.366Z,55
2022-11-21T05:20:16.468Z,55
2022-11-21T05:25:16.477Z,53
2022-11-21T05:30:16.428Z,54
2022-11-21T05:35:16.653Z,53
2022-11-21T05:40:16.538Z,54
2022-11-21T05:45:16.584Z,54
2022-11-21T05:50:16.675Z,53
2022-11-21T05:55:16.542Z,52
2022-11-21T06:00:16.721Z,53
2022-11-21T06:05:16.680Z,52
2022-11-21T06:10:16.621Z,53
2022-11-21T06:15:16.529Z,51
2022-11-21T06:20:16.656Z,51
2022-11-21T06:25:16.785Z,52
2022-11-21T06:30:21.963Z,50
2022-11-21T06:35:16.678Z,50
2022-11-21T06:40:16.643Z,53
2022-11-21T06:45:16.663Z,52
2022-11-21T06:50:16.787Z,46
2022-11-21T06:55:16.711Z,48
2022-11-21T07:00:16.803Z,49
2022-11-21T07:05:16.728Z,49
2022-11-21T07:10:16.731Z,48
2022-11-21T07:15:16.822Z,45
2022-11-21T07:20:16.819Z,46
2022-11-21T07:25:16.805Z,48
2022-11-21T07:30:16.861Z,46
2022-11-21T07:35:16.811Z,47
2022-11-21T07:40:16.744Z,47
2022-11-21T07:45:16.847Z,44
2022-11-21T07:50:16.870Z,48
2022-11-21T07:55:16.905Z,46
2022-11-21T08:00:16.788Z,46
2022-11-21T08:05:16.825Z,45
2022-11-21T08:10:16.958Z,43
2022-11-21T08:15:16.830Z,47
2022-11-21T08:20:17.665Z,47
2022-11-21T08:25:16.888Z,46
2022-11-21T08:30:16.918Z,45
2022-11-21T08:35:16.905Z,44
2022-11-21T08:40:17.002Z,44
2022-11-21T08:45:16.920Z,46
2022-11-21T08:50:16.939Z,45
2022-11-21T08:55:16.953Z,46
2022-11-21T09:00:16.954Z,45
2022-11-21T09:05:16.990Z,49
2022-11-21T09:10:17.070Z,48
2022-11-21T09:15:17.042Z,48
2022-11-21T09:20:17.120Z,46
2022-11-21T09:25:17.174Z,47
2022-11-21T09:30:17.066Z,47
2022-11-21T09:35:16.966Z,46
2022-11-21T09:40:17.096Z,49
2022-11-21T09:45:17.252Z,51
2022-11-21T09:50:17.213Z,47
2022-11-21T09:55:17.039Z,48
2022-11-21T10:00:17.151Z,48
2022-11-21T10:05:17.113Z,48
2022-11-21T10:10:17.127Z,50
2022-11-21T10:15:17.149Z,52
2022-11-21T10:20:17.231Z,52
2022-11-21T10:25:17.138Z,52
2022-11-21T10:30:17.138Z,52
2022-11-21T10:35:17.252Z,52
2022-11-21T10:40:17.210Z,52
2022-11-21T10:45:17.204Z,52
2022-11-21T10:50:17.325Z,53
2022-11-21T10:55:17.365Z,53
2022-11-21T11:00:17.363Z,56
2022-11-21T11:05:17.236Z,54
2022-11-21T11:10:17.399Z,53
2022-11-21T11:15:17.291Z,53
2022-11-21T11:20:17.242Z,55
2022-11-21T11:25:17.229Z,55
2022-11-21T11:30:17.672Z,56
2022-11-21T11:35:17.330Z,55
2022-11-21T11:40:17.400Z,55
2022-11-21T11:45:17.345Z,54
2022-11-21T11:50:17.453Z,54
2022-11-21T11:55:17.329Z,55
2022-11-21T12:00:17.442Z,56
2022-11-21T12:05:17.388Z,56
2022-11-21T12:10:15.411Z,55
2022-11-21T12:15:15.350Z,54
2022-11-21T12:20:15.354Z,53
2022-11-21T12:25:15.457Z,53
2022-11-21T12:30:15.432Z,52
2022-11-21T12:35:15.519Z,51
2022-11-21T12:40:15.631Z,49
2022-11-21T12:45:15.511Z,48
2022-11-21T12:50:15.513Z,50
2022-11-21T12:55:15.490Z,49
2022-11-21T13:00:15.488Z,48
2022-11-21T13:05:15.467Z,50
2022-11-21T13:10:15.515Z,52
2022-11-21T13:15:15.504Z,53
2022-11-21T13:20:15.576Z,52
2022-11-21T13:25:15.577Z,53
2022-11-21T13:30:15.571Z,53
2022-11-21T13:35:15.604Z,53
2022-11-21T13:40:15.625Z,54
2022-11-21T13:45:15.981Z,55
2022-11-21T13:50:15.625Z,54
2022-11-21T13:55:18.715Z,55
2022-11-21T14:00:19.916Z,55
2022-11-21T14:05:15.634Z,52
2022-11-21T14:10:15.607Z,53
2022-11-21T14:15:15.658Z,53
2022-11-21T14:20:15.740Z,50
2022-11-21T14:25:15.819Z,53
2022-11-21T14:30:15.741Z,53
2022-11-21T14:35:15.658Z,52
2022-11-21T14:40:15.632Z,53
2022-11-21T14:45:15.703Z,52
2022-11-21T14:50:15.826Z,51
2022-11-21T14:55:29.679Z,51
2022-11-21T15:00:36.153Z,51
2022-11-21T15:05:24.894Z,52
2022-11-21T15:10:31.610Z,51
2022-11-21T15:15:15.817Z,50
2022-11-21T15:20:15.766Z,51
2022-11-21T15:25:15.922Z,51
2022-11-21T15:30:15.924Z,50
2022-11-21T15:35:15.824Z,48
2022-11-21T15:40:15.976Z,51
2022-11-21T15:45:20.118Z,50
2022-11-21T15:50:15.868Z,50
2022-11-21T15:55:15.853Z,52
2022-11-21T16:00:15.943Z,52
2022-11-21T16:05:15.948Z,49
2022-11-21T16:10:22.672Z,52
2022-11-21T16:15:16.093Z,51
2022-11-21T16:20:15.948Z,51
2022-11-21T16:25:16.024Z,50
2022-11-21T16:30:15.919Z,50
2022-11-21T16:35:16.112Z,51
2022-11-21T16:40:16.009Z,54
2022-11-21T16:45:16.146Z,53
2022-11-21T16:50:16.194Z,54
2022-11-21T16:55:15.961Z,55
2022-11-21T17:00:16.071Z,53
2022-11-21T17:05:15.997Z,54
2022-11-21T17:10:16.222Z,54
2022-11-21T17:15:16.060Z,55
2022-11-21T17:20:16.061Z,53
2022-11-21T17:25:16.128Z,52
2022-11-21T17:30:16.212Z,54
2022-11-21T17:35:16.112Z,53
2022-11-21T17:40:16.136Z,53
2022-11-21T17:45:16.148Z,53
2022-11-21T17:50:16.121Z,53
2022-11-21T17:55:16.201Z,54
2022-11-21T18:00:16.296Z,54
2022-11-21T18:05:16.149Z,54
2022-11-21T18:10:41.695Z,54
2022-11-21T18:15:16.164Z,54
2022-11-21T18:20:16.211Z,54
2022-11-21T18:25:16.218Z,56
2022-11-21T18:30:16.190Z,56
2022-11-21T18:35:16.262Z,54
2022-11-21T18:40:16.311Z,52
2022-11-21T18:45:16.223Z,55
2022-11-21T18:50:16.260Z,53
2022-11-21T18:55:16.440Z,53
2022-11-21T19:00:16.426Z,52
2022-11-21T19:05:20.460Z,51
2022-11-21T19:10:41.241Z,50
2022-11-21T19:15:16.425Z,51
2022-11-21T19:20:16.289Z,51
2022-11-21T19:25:16.359Z,51
2022-11-21T19:30:16.526Z,51
2022-11-21T19:35:16.330Z,50
2022-11-21T19:40:16.536Z,51
2022-11-21T19:45:16.376Z,51
2022-11-21T19:50:16.524Z,51
2022-11-21T19:55:16.315Z,52
2022-11-21T20:00:16.533Z,52
2022-11-21T20:05:16.409Z,52
2022-11-21T20:10:16.413Z,52
2022-11-21T20:15:16.423Z,53
2022-11-21T20:20:16.657Z,53
2022-11-21T20:25:16.438Z,53
2022-11-21T20:30:16.579Z,53
2022-11-21T20:35:16.564Z,53
2022-11-21T20:40:16.770Z,53
2022-11-21T20:46:10.716Z,55
2022-11-21T20:50:39.167Z,55
2022-11-21T20:55:16.493Z,55
2022-11-21T21:00:16.559Z,57
2022-11-21T21:05:16.595Z,58
2022-11-21T21:10:16.644Z,58
2022-11-21T21:15:16.587Z,58
2022-11-21T21:20:16.642Z,59
2022-11-21T21:25:16.615Z,60
2022-11-21T21:30:16.697Z,60
2022-11-21T21:35:16.620Z,61
2022-11-21T21:40:16.658Z,62
2022-11-21T21:45:16.735Z,63
2022-11-21T21:50:16.809Z,63
2022-11-21T21:55:16.601Z,61
2022-11-21T22:00:16.694Z,62
2022-11-21T22:05:16.723Z,63
2022-11-21T22:10:16.791Z,64
2022-11-21T22:15:16.745Z,64
2022-11-21T22:20:16.703Z,65
2022-11-21T22:25:16.828Z,65
2022-11-21T22:30:16.853Z,64
2022-11-21T22:35:16.917Z,64
2022-11-21T22:40:16.762Z,63
2022-11-21T22:45:16.789Z,64
2022-11-21T22:50:16.884Z,64
2022-11-21T22:55:16.893Z,65
2022-11-21T23:00:16.821Z,65
2022-11-21T23:05:16.822Z,64
2022-11-21T23:10:16.898Z,64
2022-11-21T23:15:16.858Z,64
2022-11-21T23:20:16.834Z,64
2022-11-21T23:25:16.909Z,65
2022-11-21T23:30:17.307Z,66
2022-11-21T23:35:17.146Z,66
2022-11-21T23:40:16.910Z,67
2022-11-21T23:45:16.936Z,68
2022-11-21T23:50:17.060Z,68
2022-11-21T23:55:16.972Z,67
